createdAt,value
2019-01-31T00:00:44.196Z,20.02
2019-01-31T00:04:06.547Z,21.10
2019-01-31T00:07:03.595Z,21.40
2019-01-31T00:10:14.364Z,22.48
2019-01-31T00:13:14.790Z,19.73
2019-01-31T00:16:07.065Z,20.65
2019-01-31T00:19:00.877Z,19.05
2019-01-31T00:21:52.088Z,19.00
2019-01-31T00:24:48.763Z,18.57
2019-01-31T00:28:00.911Z,22.00
2019-01-31T00:31:06.641Z,21.40
2019-01-31T00:34:11.784Z,20.15
2019-01-31T00:37:09.601Z,19.45
2019-01-31T00:40:14.348Z,20.25
2019-01-31T00:43:03.717Z,17.98
2019-01-31T00:46:08.525Z,17.60
2019-01-31T00:49:04.788Z,17.57
2019-01-31T00:51:56.921Z,18.52
2019-01-31T00:55:05.438Z,17.62
2019-01-31T00:58:01.941Z,18.92
2019-01-31T01:00:42.756Z,17.20
2019-01-31T01:03:54.179Z,18.55
2019-01-31T01:06:38.568Z,15.75
2019-01-31T01:09:19.053Z,18.07
2019-01-31T01:12:35.893Z,17.45
2019-01-31T01:15:38.077Z,16.35
2019-01-31T01:18:45.548Z,17.70
2019-01-31T01:22:19.909Z,16.87
2019-01-31T01:25:27.110Z,17.23
2019-01-31T01:28:33.493Z,18.32
2019-01-31T01:31:36.807Z,17.10
2019-01-31T01:34:36.127Z,16.55
2019-01-31T01:37:39.941Z,17.55
2019-01-31T01:40:47.955Z,17.25
2019-01-31T01:44:04.283Z,19.10
2019-01-31T01:47:32.899Z,17.62
2019-01-31T01:50:08.248Z,16.10
2019-01-31T01:53:18.784Z,17.23
2019-01-31T01:56:25.180Z,16.67
2019-01-31T01:59:28.603Z,18.55
2019-01-31T02:02:43.731Z,15.13
2019-01-31T02:05:38.687Z,16.17
2019-01-31T02:08:44.983Z,15.13
2019-01-31T02:11:57.308Z,13.15
2019-01-31T02:15:09.350Z,13.90
2019-01-31T02:18:03.525Z,12.63
2019-01-31T02:21:12.801Z,12.90
2019-01-31T02:24:08.227Z,13.65
2019-01-31T02:27:07.616Z,13.20
2019-01-31T02:30:03.248Z,13.10
2019-01-31T02:32:52.826Z,12.58
2019-01-31T02:35:41.283Z,13.60
2019-01-31T02:38:28.891Z,12.37
2019-01-31T02:41:23.625Z,13.13
2019-01-31T02:44:08.093Z,12.53
2019-01-31T02:47:39.566Z,12.15
2019-01-31T02:50:26.360Z,11.88
2019-01-31T02:53:52.102Z,11.38
2019-01-31T02:57:17.501Z,10.55
2019-01-31T03:00:35.811Z,12.68
2019-01-31T03:03:34.483Z,11.57
2019-01-31T03:06:50.418Z,11.57
2019-01-31T03:10:03.953Z,11.68
2019-01-31T03:12:51.800Z,11.83
2019-01-31T03:15:56.460Z,11.93
2019-01-31T03:19:18.783Z,10.90
2019-01-31T03:22:28.758Z,12.10
2019-01-31T03:25:40.200Z,11.20
2019-01-31T03:28:39.057Z,11.73
2019-01-31T03:31:42.917Z,10.25
2019-01-31T03:34:41.875Z,11.30
2019-01-31T03:37:30.075Z,10.82
2019-01-31T03:40:45.649Z,9.83
2019-01-31T03:43:46.565Z,10.28
2019-01-31T03:46:51.798Z,10.82
2019-01-31T03:49:55.387Z,10.82
2019-01-31T03:53:13.392Z,9.35
2019-01-31T03:56:30.660Z,9.85
2019-01-31T03:59:12.089Z,10.20
2019-01-31T04:02:27.739Z,9.95
2019-01-31T04:05:24.840Z,10.45
2019-01-31T04:07:54.920Z,9.23
2019-01-31T04:10:24.524Z,8.80
2019-01-31T04:12:54.138Z,9.90
2019-01-31T04:15:24.038Z,9.45
2019-01-31T04:17:53.603Z,10.00
2019-01-31T04:20:23.516Z,8.20
2019-01-31T04:22:53.280Z,8.50
2019-01-31T04:25:23.000Z,8.63
2019-01-31T04:27:52.556Z,8.33
2019-01-31T04:30:22.606Z,8.08
2019-01-31T04:32:52.491Z,8.55
2019-01-31T04:35:22.360Z,8.35
2019-01-31T04:37:51.989Z,9.15
2019-01-31T04:40:30.843Z,8.30
2019-01-31T04:42:53.535Z,7.85
2019-01-31T04:45:23.161Z,7.47
2019-01-31T04:47:52.708Z,7.75
2019-01-31T04:50:22.549Z,7.95
2019-01-31T04:52:52.181Z,7.72
2019-01-31T04:55:22.013Z,7.87
2019-01-31T04:57:51.618Z,8.93
2019-01-31T05:00:21.481Z,8.15
2019-01-31T05:02:51.058Z,7.70
2019-01-31T05:05:20.643Z,9.23
2019-01-31T05:07:50.182Z,8.20
2019-01-31T05:10:20.010Z,7.00
2019-01-31T05:12:49.827Z,8.03
2019-01-31T05:15:19.396Z,9.73
2019-01-31T05:17:49.258Z,9.05
2019-01-31T05:20:19.339Z,10.18
2019-01-31T05:22:49.176Z,9.70
2019-01-31T05:25:19.053Z,9.68
2019-01-31T05:27:48.907Z,9.23
2019-01-31T05:30:18.574Z,9.15
2019-01-31T05:32:48.662Z,9.55
2019-01-31T05:35:18.213Z,10.13
2019-01-31T05:37:47.822Z,8.05
2019-01-31T05:40:17.712Z,9.28
2019-01-31T05:42:47.327Z,8.90
2019-01-31T05:45:17.663Z,9.63
2019-01-31T05:47:47.485Z,8.58
2019-01-31T05:50:18.672Z,9.53
2019-01-31T05:52:48.534Z,9.28
2019-01-31T05:55:18.586Z,9.55
2019-01-31T05:57:48.424Z,10.28
2019-01-31T06:00:23.876Z,9.23
2019-01-31T06:02:53.696Z,8.63
2019-01-31T06:05:24.232Z,10.05
2019-01-31T06:07:54.029Z,9.60
2019-01-31T06:10:23.920Z,10.95
2019-01-31T06:12:54.665Z,11.30
2019-01-31T06:15:24.213Z,11.33
2019-01-31T06:17:54.057Z,11.75
2019-01-31T06:20:25.419Z,12.30
2019-01-31T06:22:54.991Z,11.83
2019-01-31T06:25:24.581Z,11.38
2019-01-31T06:27:54.145Z,10.65
2019-01-31T06:30:23.742Z,10.20
2019-01-31T06:32:53.636Z,10.85
2019-01-31T06:35:23.488Z,11.12
2019-01-31T06:37:53.103Z,11.83
2019-01-31T06:40:22.729Z,12.20
2019-01-31T06:42:52.615Z,11.80
2019-01-31T06:45:22.888Z,12.82
2019-01-31T06:47:53.031Z,12.45
2019-01-31T06:50:22.584Z,12.68
2019-01-31T06:52:52.490Z,12.18
2019-01-31T06:55:22.326Z,12.30
2019-01-31T06:57:51.927Z,9.08
2019-01-31T07:00:23.114Z,11.53
2019-01-31T07:02:52.780Z,11.33
2019-01-31T07:05:22.389Z,11.00
2019-01-31T07:07:51.943Z,9.90
2019-01-31T07:10:24.295Z,11.43
2019-01-31T07:12:54.215Z,10.40
2019-01-31T07:15:24.200Z,10.90
2019-01-31T07:17:53.793Z,10.32
2019-01-31T07:20:23.374Z,10.32
2019-01-31T07:22:53.006Z,10.13
2019-01-31T07:25:24.469Z,11.30
2019-01-31T07:27:54.054Z,10.58
2019-01-31T07:30:26.723Z,9.30
2019-01-31T07:32:55.196Z,10.30
2019-01-31T07:35:25.139Z,9.60
2019-01-31T07:37:54.755Z,10.10
2019-01-31T07:40:24.652Z,10.53
2019-01-31T07:42:54.463Z,9.98
2019-01-31T07:45:26.803Z,9.70
2019-01-31T07:47:56.342Z,9.88
2019-01-31T07:50:26.162Z,9.98
2019-01-31T07:52:56.254Z,8.53
2019-01-31T07:55:25.862Z,9.00
2019-01-31T07:57:55.779Z,8.43
2019-01-31T08:00:25.513Z,8.30
2019-01-31T08:02:55.172Z,7.83
2019-01-31T08:05:25.227Z,9.25
2019-01-31T08:07:55.958Z,8.90
2019-01-31T08:10:28.529Z,8.85
2019-01-31T08:12:58.903Z,8.88
2019-01-31T08:15:28.992Z,8.85
2019-01-31T08:17:58.882Z,8.43
2019-01-31T08:20:28.480Z,8.15
2019-01-31T08:23:00.183Z,7.60
2019-01-31T08:25:29.759Z,7.33
2019-01-31T08:27:59.874Z,8.40
2019-01-31T08:30:31.872Z,7.78
2019-01-31T08:33:01.768Z,8.73
2019-01-31T08:35:31.331Z,9.83
2019-01-31T08:38:00.947Z,8.98
2019-01-31T08:40:30.838Z,7.20
2019-01-31T08:43:00.628Z,8.93
2019-01-31T08:45:30.748Z,7.53
2019-01-31T08:48:00.330Z,8.30
2019-01-31T08:50:30.186Z,8.50
2019-01-31T08:52:59.810Z,8.50
2019-01-31T08:55:29.922Z,7.45
2019-01-31T08:57:59.499Z,8.95
2019-01-31T09:00:30.265Z,8.40
2019-01-31T09:03:00.170Z,7.72
2019-01-31T09:05:30.244Z,7.37
2019-01-31T09:08:00.082Z,7.08
2019-01-31T09:10:31.944Z,7.53
2019-01-31T09:13:03.267Z,7.47
2019-01-31T09:15:33.165Z,6.90
2019-01-31T09:18:02.776Z,7.45
2019-01-31T09:20:36.838Z,7.25
2019-01-31T09:23:59.311Z,7.05
2019-01-31T09:27:01.221Z,7.03
2019-01-31T09:29:43.346Z,7.35
2019-01-31T09:32:52.841Z,6.37
2019-01-31T09:35:50.632Z,6.78
2019-01-31T09:38:45.763Z,7.67
2019-01-31T09:42:02.597Z,7.22
2019-01-31T09:45:37.415Z,7.72
2019-01-31T09:49:05.320Z,7.80
2019-01-31T09:52:06.819Z,7.70
2019-01-31T09:54:50.161Z,7.17
2019-01-31T09:57:58.499Z,7.05
2019-01-31T10:00:57.332Z,7.35
2019-01-31T10:04:07.663Z,8.15
2019-01-31T10:07:03.231Z,8.30
2019-01-31T10:10:02.210Z,7.85
2019-01-31T10:13:11.375Z,7.58
2019-01-31T10:16:36.836Z,8.00
2019-01-31T10:19:23.772Z,7.17
2019-01-31T10:22:40.117Z,9.83
2019-01-31T10:25:45.067Z,9.73
2019-01-31T10:28:49.047Z,8.85
2019-01-31T10:31:50.207Z,9.50
2019-01-31T10:35:06.614Z,9.45
2019-01-31T10:38:09.943Z,10.80
2019-01-31T10:41:06.779Z,11.60
2019-01-31T10:44:30.025Z,10.40
2019-01-31T10:47:49.871Z,9.90
2019-01-31T10:51:03.611Z,8.63
2019-01-31T10:54:16.135Z,8.68
2019-01-31T10:56:58.344Z,7.20
2019-01-31T11:00:00.543Z,9.25
2019-01-31T11:02:57.207Z,6.90
2019-01-31T11:06:07.927Z,6.83
2019-01-31T11:09:13.875Z,6.90
2019-01-31T11:12:27.611Z,8.20
2019-01-31T11:15:13.058Z,6.30
2019-01-31T11:18:09.177Z,8.60
2019-01-31T11:21:27.608Z,7.12
2019-01-31T11:24:47.232Z,8.23
2019-01-31T11:27:49.770Z,7.45
2019-01-31T11:31:00.212Z,8.25
2019-01-31T11:34:01.703Z,10.75
2019-01-31T11:37:04.838Z,8.55
2019-01-31T11:39:59.598Z,7.85
2019-01-31T11:42:54.438Z,7.25
2019-01-31T11:45:54.680Z,6.50
2019-01-31T11:48:41.798Z,7.42
2019-01-31T11:51:54.412Z,7.65
2019-01-31T11:54:58.887Z,7.80
2019-01-31T11:57:59.968Z,6.33
2019-01-31T12:00:29.899Z,6.45
2019-01-31T12:02:59.569Z,6.80
2019-01-31T12:05:29.416Z,7.87
2019-01-31T12:07:59.102Z,6.67
2019-01-31T12:10:28.962Z,6.30
2019-01-31T12:12:58.675Z,5.72
2019-01-31T12:15:28.540Z,6.70
2019-01-31T12:17:58.149Z,5.45
2019-01-31T12:20:27.986Z,4.75
2019-01-31T12:22:57.578Z,5.47
2019-01-31T12:25:27.402Z,5.20
2019-01-31T12:27:57.267Z,5.00
2019-01-31T12:30:28.140Z,5.33
2019-01-31T12:32:58.294Z,6.08
2019-01-31T12:35:27.880Z,5.17
2019-01-31T12:37:57.701Z,3.95
2019-01-31T12:40:27.508Z,4.40
2019-01-31T12:42:57.340Z,3.80
2019-01-31T12:45:27.215Z,4.30
2019-01-31T12:47:57.171Z,3.22
2019-01-31T12:50:28.914Z,3.10
2019-01-31T12:52:58.449Z,3.75
2019-01-31T12:55:28.362Z,4.08
2019-01-31T12:57:57.893Z,3.37
2019-01-31T13:00:29.415Z,3.40
2019-01-31T13:02:59.654Z,3.35
2019-01-31T13:05:29.191Z,3.45
2019-01-31T13:07:59.332Z,4.08
2019-01-31T13:10:29.198Z,3.67
2019-01-31T13:12:59.046Z,3.05
2019-01-31T13:15:29.442Z,2.98
2019-01-31T13:17:59.808Z,3.20
2019-01-31T13:20:29.407Z,2.90
2019-01-31T13:22:59.493Z,3.52
2019-01-31T13:25:29.703Z,4.25
2019-01-31T13:27:59.602Z,3.52
2019-01-31T13:30:29.561Z,3.70
2019-01-31T13:32:59.165Z,3.95
2019-01-31T13:35:28.994Z,3.27
2019-01-31T13:37:59.061Z,2.83
2019-01-31T13:40:28.648Z,2.90
2019-01-31T13:42:58.827Z,2.85
2019-01-31T13:45:33.339Z,3.00
2019-01-31T13:48:05.789Z,2.98
2019-01-31T13:50:35.555Z,2.80
2019-01-31T13:53:07.423Z,3.30
2019-01-31T13:55:37.140Z,2.65
2019-01-31T13:58:10.116Z,3.30
2019-01-31T14:00:38.595Z,2.92
2019-01-31T14:03:08.522Z,3.25
2019-01-31T14:05:38.407Z,2.83
2019-01-31T14:08:08.658Z,2.87
2019-01-31T14:10:38.188Z,3.75
2019-01-31T14:13:07.772Z,2.55
2019-01-31T14:15:38.120Z,3.77
2019-01-31T14:18:07.702Z,3.17
2019-01-31T14:20:37.359Z,3.20
2019-01-31T14:23:07.099Z,3.12
2019-01-31T14:25:36.968Z,3.27
2019-01-31T14:28:06.660Z,3.15
2019-01-31T14:30:40.015Z,3.25
2019-01-31T14:33:36.135Z,2.85
2019-01-31T14:36:06.059Z,2.75
2019-01-31T14:38:35.674Z,2.83
2019-01-31T14:41:05.664Z,3.80
2019-01-31T14:43:35.780Z,3.05
2019-01-31T14:46:05.839Z,2.80
2019-01-31T14:48:35.416Z,2.65
2019-01-31T14:51:05.382Z,2.60
2019-01-31T14:53:34.964Z,3.20
2019-01-31T14:56:04.910Z,3.02
2019-01-31T14:58:34.473Z,3.05
2019-01-31T15:01:04.647Z,3.55
2019-01-31T15:03:34.199Z,3.00
2019-01-31T15:06:04.017Z,2.70
2019-01-31T15:08:34.110Z,3.70
2019-01-31T15:11:03.677Z,4.42
2019-01-31T15:13:33.792Z,4.17
2019-01-31T15:16:03.716Z,3.30
2019-01-31T15:18:33.275Z,3.30
2019-01-31T15:21:03.143Z,2.90
2019-01-31T15:23:32.707Z,3.15
2019-01-31T15:26:02.291Z,3.52
2019-01-31T15:28:31.872Z,3.02
2019-01-31T15:31:01.395Z,3.50
2019-01-31T15:33:31.020Z,2.80
2019-01-31T15:36:00.660Z,3.72
2019-01-31T15:38:30.259Z,3.40
2019-01-31T15:41:00.352Z,3.45
2019-01-31T15:43:30.152Z,4.03
2019-01-31T15:46:00.078Z,3.60
2019-01-31T15:48:29.624Z,3.55
2019-01-31T15:50:59.220Z,3.30
2019-01-31T15:53:29.326Z,3.75
2019-01-31T15:55:58.917Z,3.77
2019-01-31T15:58:28.565Z,4.08
2019-01-31T16:00:58.634Z,5.00
2019-01-31T16:03:28.713Z,5.33
2019-01-31T16:05:58.362Z,3.87
2019-01-31T16:08:27.957Z,4.10
2019-01-31T16:10:57.755Z,4.95
2019-01-31T16:13:27.614Z,4.05
2019-01-31T16:15:57.555Z,5.55
2019-01-31T16:18:27.387Z,5.67
2019-01-31T16:20:57.019Z,5.55
2019-01-31T16:23:26.862Z,5.05
2019-01-31T16:25:56.451Z,4.80
2019-01-31T16:28:26.275Z,3.52
2019-01-31T16:30:56.149Z,4.10
2019-01-31T16:33:25.963Z,3.35
2019-01-31T16:35:55.540Z,4.33
2019-01-31T16:38:25.361Z,3.92
2019-01-31T16:40:54.943Z,3.72
2019-01-31T16:43:24.538Z,4.40
2019-01-31T16:45:55.046Z,4.50
2019-01-31T16:48:25.207Z,5.25
2019-01-31T16:50:55.012Z,4.53
2019-01-31T16:53:24.905Z,4.20
2019-01-31T16:55:55.272Z,4.62
2019-01-31T16:58:25.135Z,5.10
2019-01-31T17:00:55.120Z,3.90
2019-01-31T17:03:24.960Z,5.03
2019-01-31T17:05:54.598Z,4.97
2019-01-31T17:08:24.505Z,4.50
2019-01-31T17:10:54.631Z,4.15
2019-01-31T17:13:24.273Z,5.40
2019-01-31T17:15:53.877Z,4.40
2019-01-31T17:18:23.830Z,5.08
2019-01-31T17:20:53.958Z,4.62
2019-01-31T17:23:24.093Z,6.10
2019-01-31T17:25:53.702Z,5.08
2019-01-31T17:28:23.277Z,4.70
2019-01-31T17:30:52.906Z,5.80
2019-01-31T17:33:22.554Z,5.00
2019-01-31T17:35:52.146Z,4.40
2019-01-31T17:38:21.998Z,4.22
2019-01-31T17:40:51.558Z,4.00
2019-01-31T17:43:21.161Z,4.45
2019-01-31T17:45:50.824Z,4.20
2019-01-31T17:48:20.394Z,4.05
2019-01-31T17:50:50.499Z,4.15
2019-01-31T17:53:20.340Z,3.98
2019-01-31T17:55:49.984Z,4.70
2019-01-31T17:58:19.611Z,4.72
2019-01-31T18:00:54.996Z,5.65
2019-01-31T18:03:25.063Z,4.80
2019-01-31T18:05:54.623Z,5.12
2019-01-31T18:08:24.443Z,5.28
2019-01-31T18:10:54.574Z,4.55
2019-01-31T18:13:24.941Z,4.75
2019-01-31T18:15:54.825Z,5.20
2019-01-31T18:18:24.496Z,5.05
2019-01-31T18:20:54.124Z,6.15
2019-01-31T18:23:23.696Z,6.20
2019-01-31T18:25:53.543Z,5.45
2019-01-31T18:28:23.908Z,5.37
2019-01-31T18:30:54.087Z,11.75
2019-01-31T18:33:23.720Z,6.90
2019-01-31T18:35:53.577Z,6.50
2019-01-31T18:38:23.403Z,6.08
2019-01-31T18:40:52.988Z,6.17
2019-01-31T18:43:22.609Z,6.40
2019-01-31T18:45:53.686Z,6.95
2019-01-31T18:48:23.363Z,6.53
2019-01-31T18:50:52.900Z,7.45
2019-01-31T18:53:22.488Z,7.30
2019-01-31T18:55:52.275Z,6.72
2019-01-31T18:58:22.196Z,8.08
2019-01-31T19:00:52.683Z,7.90
2019-01-31T19:03:22.310Z,6.15
2019-01-31T19:05:52.177Z,7.22
2019-01-31T19:08:21.740Z,7.55
2019-01-31T19:10:51.344Z,8.15
2019-01-31T19:13:20.906Z,8.70
2019-01-31T19:15:50.472Z,9.03
2019-01-31T19:18:20.075Z,7.90
2019-01-31T19:20:50.044Z,7.45
2019-01-31T19:23:19.740Z,7.53
2019-01-31T19:25:49.335Z,8.05
2019-01-31T19:28:18.870Z,8.08
2019-01-31T19:30:48.672Z,7.40
2019-01-31T19:33:18.284Z,8.15
2019-01-31T19:35:48.165Z,7.80
2019-01-31T19:38:17.699Z,8.70
2019-01-31T19:40:47.597Z,8.53
2019-01-31T19:43:17.382Z,8.63
2019-01-31T19:45:49.355Z,8.58
2019-01-31T19:48:19.059Z,8.18
2019-01-31T19:50:48.593Z,7.33
2019-01-31T19:53:18.198Z,7.78
2019-01-31T19:55:48.281Z,9.20
2019-01-31T19:58:17.879Z,7.40
2019-01-31T20:00:47.781Z,7.58
2019-01-31T20:03:17.368Z,7.30
2019-01-31T20:05:46.915Z,6.22
2019-01-31T20:08:16.747Z,7.05
2019-01-31T20:10:46.429Z,7.30
2019-01-31T20:13:16.284Z,6.85
2019-01-31T20:15:45.899Z,7.60
2019-01-31T20:18:15.444Z,6.10
2019-01-31T20:20:45.056Z,6.40
2019-01-31T20:23:14.647Z,5.70
2019-01-31T20:25:44.311Z,5.90
2019-01-31T20:28:13.947Z,7.25
2019-01-31T20:30:43.793Z,7.08
2019-01-31T20:33:13.425Z,7.22
2019-01-31T20:35:43.048Z,6.05
2019-01-31T20:38:12.966Z,6.90
2019-01-31T20:40:43.486Z,6.37
2019-01-31T20:43:13.052Z,6.25
2019-01-31T20:45:42.711Z,6.03
2019-01-31T20:48:12.536Z,6.25
2019-01-31T20:50:42.786Z,5.30
2019-01-31T20:53:12.427Z,4.87
2019-01-31T20:55:42.463Z,4.92
2019-01-31T20:58:12.279Z,5.12
2019-01-31T21:00:44.555Z,5.85
2019-01-31T21:03:14.718Z,6.10
2019-01-31T21:05:44.600Z,5.75
2019-01-31T21:08:15.239Z,5.70
2019-01-31T21:10:46.415Z,6.35
2019-01-31T21:13:15.941Z,6.78
2019-01-31T21:15:45.573Z,6.33
2019-01-31T21:18:15.438Z,7.53
2019-01-31T21:20:45.317Z,7.42
2019-01-31T21:23:15.171Z,8.55
2019-01-31T21:25:45.084Z,7.45
2019-01-31T21:28:14.706Z,6.67
2019-01-31T21:30:44.310Z,7.50
2019-01-31T21:33:13.909Z,6.78
2019-01-31T21:35:43.790Z,7.33
2019-01-31T21:38:13.660Z,7.55
2019-01-31T21:40:43.356Z,6.90
2019-01-31T21:43:13.167Z,6.90
2019-01-31T21:45:42.799Z,7.53
2019-01-31T21:48:12.567Z,7.22
2019-01-31T21:50:42.483Z,6.60
2019-01-31T21:53:12.291Z,7.60
2019-01-31T21:55:42.192Z,7.85
2019-01-31T21:58:11.753Z,7.20
2019-01-31T22:00:41.323Z,7.00
2019-01-31T22:03:11.256Z,7.25
2019-01-31T22:05:41.167Z,6.83
2019-01-31T22:08:10.775Z,7.47
2019-01-31T22:10:40.348Z,6.70
2019-01-31T22:13:09.959Z,6.75
2019-01-31T22:15:39.527Z,7.35
2019-01-31T22:18:09.177Z,8.15
2019-01-31T22:20:39.058Z,8.00
2019-01-31T22:23:08.627Z,7.08
2019-01-31T22:25:38.461Z,7.90
2019-01-31T22:28:08.290Z,7.67
2019-01-31T22:30:38.752Z,7.20
2019-01-31T22:33:11.439Z,7.25
2019-01-31T22:35:41.584Z,7.45
2019-01-31T22:38:11.175Z,6.22
2019-01-31T22:40:41.006Z,5.90
2019-01-31T22:43:10.869Z,6.33
2019-01-31T22:45:40.477Z,7.75
2019-01-31T22:48:10.096Z,7.40
2019-01-31T22:50:40.202Z,8.50
2019-01-31T22:53:10.427Z,7.95
2019-01-31T22:55:40.265Z,7.70
2019-01-31T22:58:09.867Z,7.12
2019-01-31T23:00:50.904Z,6.33
2019-01-31T23:03:20.767Z,6.75
2019-01-31T23:05:50.400Z,7.22
2019-01-31T23:08:19.965Z,6.62
2019-01-31T23:10:49.829Z,6.35
2019-01-31T23:13:19.754Z,5.80
2019-01-31T23:15:49.378Z,5.78
2019-01-31T23:18:18.971Z,6.65
2019-01-31T23:20:48.895Z,5.20
2019-01-31T23:23:18.732Z,5.28
2019-01-31T23:25:48.630Z,5.03
2019-01-31T23:28:18.330Z,3.87
2019-01-31T23:30:47.898Z,4.53
2019-01-31T23:33:17.478Z,4.35
2019-01-31T23:35:47.028Z,4.67
2019-01-31T23:38:16.870Z,4.70
2019-01-31T23:40:46.423Z,4.72
2019-01-31T23:43:16.016Z,4.60
2019-01-31T23:45:45.641Z,3.80
2019-01-31T23:48:15.187Z,4.60
2019-01-31T23:50:45.028Z,4.72
2019-01-31T23:53:14.654Z,4.97
2019-01-31T23:55:44.251Z,4.97
2019-01-31T23:58:13.831Z,4.30
